createdAt,value
2023-12-31T00:03:01.731Z,-0.49
2023-12-31T00:06:06.072Z,-0.54
2023-12-31T00:09:08.659Z,-0.55
2023-12-31T00:12:11.377Z,-0.58
2023-12-31T00:15:13.970Z,-0.59
2023-12-31T00:18:16.816Z,-0.62
2023-12-31T00:21:20.738Z,-0.64
2023-12-31T00:24:23.789Z,-0.65
2023-12-31T00:27:26.677Z,-0.63
2023-12-31T00:30:29.998Z,-0.60
2023-12-31T00:33:33.820Z,-0.57
2023-12-31T00:36:36.762Z,-0.57
2023-12-31T00:39:39.185Z,-0.61
2023-12-31T00:42:42.000Z,-0.68
2023-12-31T00:45:44.628Z,-0.66
2023-12-31T00:48:47.741Z,-0.70
2023-12-31T00:51:50.426Z,-0.67
2023-12-31T00:54:53.757Z,-0.66
2023-12-31T00:57:56.426Z,-0.65
2023-12-31T01:00:59.440Z,-0.69
2023-12-31T01:04:02.270Z,-0.69
2023-12-31T01:07:05.472Z,-0.70
2023-12-31T01:10:08.540Z,-0.69
2023-12-31T01:13:11.455Z,-0.63
2023-12-31T01:16:13.935Z,-0.52
2023-12-31T01:19:17.782Z,-0.52
2023-12-31T01:22:20.536Z,-0.51
2023-12-31T01:25:23.563Z,-0.49
2023-12-31T01:28:26.272Z,-0.49
2023-12-31T01:31:29.126Z,-0.52
2023-12-31T01:34:31.881Z,-0.51
2023-12-31T01:37:34.873Z,-0.56
2023-12-31T01:40:37.524Z,-0.60
2023-12-31T01:43:40.650Z,-0.67
2023-12-31T01:46:43.348Z,-0.62
2023-12-31T01:49:46.690Z,-0.58
2023-12-31T01:52:49.854Z,-0.57
2023-12-31T01:55:53.540Z,-0.55
2023-12-31T01:58:58.782Z,-0.54
2023-12-31T02:02:02.036Z,-0.50
2023-12-31T02:05:06.631Z,-0.56
2023-12-31T02:08:09.444Z,-0.62
2023-12-31T02:11:12.913Z,-0.64
2023-12-31T02:14:15.405Z,-0.63
2023-12-31T02:17:18.599Z,-0.61
2023-12-31T02:20:21.121Z,-0.58
2023-12-31T02:23:23.926Z,-0.58
2023-12-31T02:26:27.591Z,-0.55
2023-12-31T02:29:31.587Z,-0.55
2023-12-31T02:32:34.544Z,-0.57
2023-12-31T02:35:36.959Z,-0.54
2023-12-31T02:38:39.983Z,-0.55
2023-12-31T02:41:42.744Z,-0.55
2023-12-31T02:44:45.552Z,-0.46
2023-12-31T02:47:48.664Z,-0.36
2023-12-31T02:50:51.685Z,-0.26
2023-12-31T02:53:54.136Z,-0.17
2023-12-31T02:56:56.868Z,-0.12
2023-12-31T02:59:59.414Z,-0.15
2023-12-31T03:03:02.646Z,-0.15
2023-12-31T03:06:06.111Z,-0.25
2023-12-31T03:09:10.588Z,-0.32
2023-12-31T03:12:13.975Z,-0.38
2023-12-31T03:15:16.998Z,-0.41
2023-12-31T03:18:19.734Z,-0.41
2023-12-31T03:21:22.609Z,-0.46
2023-12-31T03:24:25.225Z,-0.45
2023-12-31T03:27:27.961Z,-0.48
2023-12-31T03:30:30.630Z,-0.54
2023-12-31T03:33:33.940Z,-0.57
2023-12-31T03:36:36.598Z,-0.61
2023-12-31T03:39:39.381Z,-0.65
2023-12-31T03:42:43.354Z,-0.67
2023-12-31T03:45:46.084Z,-0.71
2023-12-31T03:48:48.833Z,-0.71
2023-12-31T03:51:52.406Z,-0.71
2023-12-31T03:54:54.892Z,-0.69
2023-12-31T03:57:57.591Z,-0.71
2023-12-31T04:01:00.481Z,-0.69
2023-12-31T04:04:03.781Z,-0.69
2023-12-31T04:07:06.496Z,-0.69
2023-12-31T04:10:10.339Z,-0.68
2023-12-31T04:13:13.061Z,-0.69
2023-12-31T04:16:16.091Z,-0.71
2023-12-31T04:19:18.836Z,-0.70
2023-12-31T04:22:24.890Z,-0.70
2023-12-31T04:25:27.653Z,-0.69
2023-12-31T04:28:30.746Z,-0.69
2023-12-31T04:31:34.547Z,-0.69
2023-12-31T04:34:37.519Z,-0.69
2023-12-31T04:37:40.367Z,-0.71
2023-12-31T04:40:43.144Z,-0.70
2023-12-31T04:43:46.014Z,-0.68
2023-12-31T04:46:49.270Z,-0.67
2023-12-31T04:49:52.822Z,-0.73
2023-12-31T04:52:56.915Z,-0.69
2023-12-31T04:55:59.428Z,-0.70
2023-12-31T04:59:02.572Z,-0.72
2023-12-31T05:02:05.272Z,-0.74
2023-12-31T05:05:08.438Z,-0.77
2023-12-31T05:08:11.233Z,-0.79
2023-12-31T05:11:15.440Z,-0.79
2023-12-31T05:14:18.187Z,-0.76
2023-12-31T05:17:21.263Z,-0.77
2023-12-31T05:20:23.945Z,-0.67
2023-12-31T05:23:27.379Z,-0.61
2023-12-31T05:26:30.047Z,-0.55
2023-12-31T05:29:33.057Z,-0.48
2023-12-31T05:32:35.758Z,-0.39
2023-12-31T05:35:38.596Z,-0.38
2023-12-31T05:38:41.147Z,-0.34
2023-12-31T05:41:43.915Z,-0.29
2023-12-31T05:44:46.769Z,-0.27
2023-12-31T05:47:50.149Z,-0.24
2023-12-31T05:50:52.964Z,-0.20
2023-12-31T05:53:55.676Z,-0.13
2023-12-31T05:56:58.488Z,-0.07
2023-12-31T06:00:02.123Z,-0.05
2023-12-31T06:03:14.516Z,-0.03
2023-12-31T06:06:17.698Z,0.00
2023-12-31T06:09:20.468Z,0.05
2023-12-31T06:12:23.756Z,0.09
2023-12-31T06:15:26.468Z,0.12
2023-12-31T06:18:29.271Z,0.14
2023-12-31T06:21:31.787Z,0.13
2023-12-31T06:24:34.578Z,0.07
2023-12-31T06:27:40.805Z,0.12
2023-12-31T06:30:43.621Z,0.16
2023-12-31T06:33:46.577Z,0.17
2023-12-31T06:36:49.549Z,0.21
2023-12-31T06:39:52.259Z,0.24
2023-12-31T06:42:55.077Z,0.29
2023-12-31T06:45:57.738Z,0.33
2023-12-31T06:49:00.954Z,0.36
2023-12-31T06:52:03.577Z,0.42
2023-12-31T06:55:08.226Z,0.46
2023-12-31T06:58:10.965Z,0.53
2023-12-31T07:01:14.722Z,0.55
2023-12-31T07:04:17.835Z,0.55
2023-12-31T07:07:21.069Z,0.58
2023-12-31T07:10:24.541Z,0.61
2023-12-31T07:13:27.664Z,0.65
2023-12-31T07:16:31.480Z,0.67
2023-12-31T07:19:35.741Z,0.70
2023-12-31T07:22:39.650Z,0.72
2023-12-31T07:25:43.763Z,0.73
2023-12-31T07:28:48.128Z,0.79
2023-12-31T07:31:51.723Z,0.82
2023-12-31T07:34:54.770Z,0.84
2023-12-31T07:37:58.545Z,0.88
2023-12-31T07:41:02.429Z,1.04
2023-12-31T07:44:06.031Z,1.13
2023-12-31T07:47:09.006Z,1.09
2023-12-31T07:50:12.504Z,1.14
2023-12-31T07:53:15.330Z,1.11
2023-12-31T07:56:18.634Z,1.18
2023-12-31T07:59:21.535Z,1.29
2023-12-31T08:02:24.594Z,1.22
2023-12-31T08:05:28.526Z,1.40
2023-12-31T08:08:31.150Z,1.38
2023-12-31T08:11:34.119Z,1.48
2023-12-31T08:14:36.791Z,1.63
2023-12-31T08:17:39.853Z,1.74
2023-12-31T08:20:43.764Z,1.78
2023-12-31T08:23:48.156Z,1.85
2023-12-31T08:26:54.833Z,1.88
2023-12-31T08:29:57.974Z,1.81
2023-12-31T08:33:01.396Z,1.92
2023-12-31T08:36:04.909Z,2.02
2023-12-31T08:39:08.067Z,2.17
2023-12-31T08:42:10.945Z,2.39
2023-12-31T08:45:13.519Z,2.54
2023-12-31T08:48:19.031Z,2.61
2023-12-31T08:51:21.772Z,2.62
2023-12-31T08:54:24.628Z,2.68
2023-12-31T08:57:27.401Z,2.73
2023-12-31T09:00:34.033Z,2.87
2023-12-31T09:03:36.504Z,3.42
2023-12-31T09:06:39.698Z,3.99
2023-12-31T09:09:43.498Z,4.40
2023-12-31T09:12:46.632Z,4.50
2023-12-31T09:15:50.218Z,4.52
2023-12-31T09:18:53.096Z,4.60
2023-12-31T09:21:55.834Z,4.76
2023-12-31T09:24:58.715Z,5.22
2023-12-31T09:28:01.269Z,5.77
2023-12-31T09:31:04.553Z,5.53
2023-12-31T09:34:07.241Z,4.79
2023-12-31T09:37:10.521Z,4.45
2023-12-31T09:40:13.586Z,4.32
2023-12-31T09:43:20.569Z,4.12
2023-12-31T09:46:24.074Z,4.19
2023-12-31T09:49:26.992Z,4.35
2023-12-31T09:52:33.087Z,4.53
2023-12-31T09:55:37.528Z,4.71
2023-12-31T09:58:51.535Z,4.84
2023-12-31T10:02:07.810Z,5.41
2023-12-31T10:05:11.309Z,5.51
2023-12-31T10:08:14.594Z,5.37
2023-12-31T10:11:17.680Z,5.19
2023-12-31T10:14:20.491Z,5.27
2023-12-31T10:17:23.664Z,5.25
2023-12-31T10:20:26.866Z,5.14
2023-12-31T10:23:29.935Z,5.26
2023-12-31T10:26:33.085Z,5.38
2023-12-31T10:29:36.893Z,5.82
2023-12-31T10:32:39.854Z,6.16
2023-12-31T10:35:42.792Z,6.12
2023-12-31T10:38:47.106Z,6.01
2023-12-31T10:41:51.542Z,6.25
2023-12-31T10:44:57.667Z,6.35
2023-12-31T10:48:08.031Z,6.30
2023-12-31T10:51:13.570Z,6.40
2023-12-31T10:54:24.601Z,6.27
2023-12-31T10:57:28.063Z,6.25
2023-12-31T11:00:32.487Z,6.18
2023-12-31T11:03:37.401Z,6.14
2023-12-31T11:06:41.752Z,6.18
2023-12-31T11:09:44.980Z,6.20
2023-12-31T11:12:50.162Z,6.28
2023-12-31T11:15:56.726Z,6.48
2023-12-31T11:19:26.502Z,6.63
2023-12-31T11:22:56.495Z,6.97
2023-12-31T11:26:00.480Z,7.11
2023-12-31T11:29:04.172Z,7.08
2023-12-31T11:32:09.414Z,6.87
2023-12-31T11:35:12.518Z,6.88
2023-12-31T11:38:16.300Z,6.89
2023-12-31T11:41:20.442Z,6.80
2023-12-31T11:44:43.890Z,6.76
2023-12-31T11:47:49.089Z,6.67
2023-12-31T11:50:59.693Z,6.64
2023-12-31T11:54:04.045Z,6.60
2023-12-31T11:57:09.998Z,6.62
2023-12-31T12:00:13.313Z,6.64
2023-12-31T12:03:18.875Z,6.67
2023-12-31T12:06:22.495Z,6.66
2023-12-31T12:09:31.427Z,6.66
2023-12-31T12:12:34.604Z,6.60
2023-12-31T12:15:37.830Z,6.54
2023-12-31T12:18:40.658Z,6.39
2023-12-31T12:21:43.734Z,6.30
2023-12-31T12:24:47.384Z,6.23
2023-12-31T12:27:51.099Z,6.17
2023-12-31T12:30:53.636Z,6.07
2023-12-31T12:33:57.834Z,6.00
2023-12-31T12:37:01.250Z,5.97
2023-12-31T12:40:06.816Z,5.87
2023-12-31T12:43:13.598Z,5.79
2023-12-31T12:46:16.612Z,5.78
2023-12-31T12:49:20.345Z,5.80
2023-12-31T12:52:23.592Z,5.79
2023-12-31T12:55:26.383Z,5.78
2023-12-31T12:58:29.173Z,5.77
2023-12-31T13:01:32.867Z,5.76
2023-12-31T13:04:36.632Z,5.79
2023-12-31T13:07:39.436Z,5.78
2023-12-31T13:10:43.202Z,5.80
2023-12-31T13:13:49.370Z,5.83
2023-12-31T13:16:53.137Z,5.84
2023-12-31T13:19:56.585Z,5.85
2023-12-31T13:22:59.594Z,5.86
2023-12-31T13:26:04.445Z,5.90
2023-12-31T13:29:07.467Z,5.93
2023-12-31T13:32:12.482Z,5.97
2023-12-31T13:35:15.513Z,6.01
2023-12-31T13:38:23.638Z,6.03
2023-12-31T13:41:29.159Z,6.06
2023-12-31T13:44:31.798Z,6.03
2023-12-31T13:47:36.216Z,6.04
2023-12-31T13:50:38.889Z,6.06
2023-12-31T13:53:42.101Z,6.10
2023-12-31T13:56:44.736Z,6.10
2023-12-31T13:59:47.503Z,6.12
2023-12-31T14:02:57.251Z,6.13
2023-12-31T14:06:06.890Z,6.17
2023-12-31T14:09:11.390Z,6.21
2023-12-31T14:12:23.546Z,6.24
2023-12-31T14:15:26.123Z,6.28
2023-12-31T14:18:28.935Z,6.29
2023-12-31T14:21:31.673Z,6.30
2023-12-31T14:24:34.453Z,6.29
2023-12-31T14:27:36.876Z,6.34
2023-12-31T14:30:39.848Z,6.34
2023-12-31T14:33:42.568Z,6.39
2023-12-31T14:36:45.862Z,6.42
2023-12-31T14:39:48.576Z,6.44
2023-12-31T14:42:51.675Z,6.36
2023-12-31T14:45:54.554Z,6.34
2023-12-31T14:48:57.534Z,6.32
2023-12-31T14:52:00.292Z,6.28
2023-12-31T14:55:04.629Z,6.22
2023-12-31T14:58:07.462Z,6.15
2023-12-31T15:01:10.993Z,6.08
2023-12-31T15:04:13.614Z,6.06
2023-12-31T15:07:16.855Z,6.02
2023-12-31T15:10:20.937Z,5.97
2023-12-31T15:13:23.858Z,5.96
2023-12-31T15:16:26.848Z,5.91
2023-12-31T15:19:30.027Z,5.88
2023-12-31T15:22:33.055Z,5.85
2023-12-31T15:25:36.125Z,5.82
2023-12-31T15:32:45.240Z,5.76
2023-12-31T15:35:51.617Z,5.70
2023-12-31T15:38:54.091Z,5.73
2023-12-31T15:41:56.892Z,5.74
2023-12-31T15:45:00.423Z,5.74
2023-12-31T15:48:03.886Z,5.71
2023-12-31T15:51:11.835Z,5.69
2023-12-31T15:54:15.327Z,5.68
2023-12-31T15:57:18.153Z,5.63
2023-12-31T16:00:21.906Z,5.64
2023-12-31T16:03:24.877Z,5.61
2023-12-31T16:06:28.600Z,5.55
2023-12-31T16:09:31.633Z,5.54
2023-12-31T16:12:34.311Z,5.50
2023-12-31T16:15:37.281Z,5.47
2023-12-31T16:18:40.079Z,5.45
2023-12-31T16:21:44.287Z,5.46
2023-12-31T16:24:47.049Z,5.43
2023-12-31T16:27:49.835Z,5.44
2023-12-31T16:30:52.323Z,5.46
2023-12-31T16:33:55.120Z,5.47
2023-12-31T16:36:57.629Z,5.47
2023-12-31T16:40:00.318Z,5.48
2023-12-31T16:43:09.249Z,5.46
2023-12-31T16:46:12.174Z,5.54
2023-12-31T16:49:15.468Z,5.56
2023-12-31T16:52:18.285Z,5.53
2023-12-31T16:55:21.139Z,5.48
2023-12-31T16:58:24.058Z,5.42
2023-12-31T17:01:27.963Z,5.37
2023-12-31T17:04:31.106Z,5.40
2023-12-31T17:07:33.653Z,5.44
2023-12-31T17:10:36.725Z,5.47
2023-12-31T17:13:41.098Z,5.49
2023-12-31T17:16:44.251Z,5.50
2023-12-31T17:19:47.384Z,5.55
2023-12-31T17:22:50.669Z,5.56
2023-12-31T17:25:53.407Z,5.53
2023-12-31T17:28:56.980Z,5.51
2023-12-31T17:31:59.809Z,5.51
2023-12-31T17:35:03.486Z,5.49
2023-12-31T17:38:06.854Z,5.51
2023-12-31T17:41:10.338Z,5.51
2023-12-31T17:44:13.082Z,5.37
2023-12-31T17:47:16.854Z,5.57
2023-12-31T17:50:22.210Z,5.57
2023-12-31T17:53:29.639Z,5.57
2023-12-31T17:56:32.484Z,5.62
2023-12-31T17:59:35.450Z,5.76
2023-12-31T18:02:38.725Z,6.14
2023-12-31T18:05:44.303Z,6.89
2023-12-31T18:08:49.706Z,6.92
2023-12-31T18:11:52.725Z,7.06
2023-12-31T18:14:55.190Z,7.05
2023-12-31T18:17:58.402Z,7.14
2023-12-31T18:21:01.188Z,7.13
2023-12-31T18:24:04.310Z,7.23
2023-12-31T18:27:07.015Z,7.22
2023-12-31T18:30:19.683Z,7.19
2023-12-31T18:33:24.700Z,7.18
2023-12-31T18:36:29.571Z,7.17
2023-12-31T18:39:33.397Z,7.10
2023-12-31T18:42:36.445Z,7.14
2023-12-31T18:45:39.132Z,7.15
2023-12-31T18:48:42.018Z,7.30
2023-12-31T18:51:45.134Z,7.24
2023-12-31T18:54:47.960Z,7.25
2023-12-31T18:57:50.755Z,7.28
2023-12-31T19:00:57.020Z,7.21
2023-12-31T19:04:02.251Z,7.22
2023-12-31T19:07:06.725Z,7.48
2023-12-31T19:10:10.360Z,7.44
2023-12-31T19:13:16.271Z,7.50
2023-12-31T19:16:18.747Z,7.59
2023-12-31T19:19:21.909Z,7.56
2023-12-31T19:22:24.685Z,7.67
2023-12-31T19:25:27.735Z,7.75
2023-12-31T19:28:33.045Z,7.75
2023-12-31T19:31:37.579Z,7.78
2023-12-31T19:34:43.721Z,7.77
2023-12-31T19:37:46.644Z,7.78
2023-12-31T19:40:49.409Z,7.87
2023-12-31T19:46:59.296Z,7.80
2023-12-31T19:50:02.927Z,7.76
2023-12-31T19:53:05.957Z,7.73
2023-12-31T19:56:09.131Z,7.85
2023-12-31T19:59:13.709Z,7.86
2023-12-31T20:02:17.536Z,7.86
2023-12-31T20:05:22.426Z,7.97
2023-12-31T20:08:25.494Z,7.91
2023-12-31T20:11:28.309Z,8.02
2023-12-31T20:14:31.065Z,7.97
2023-12-31T20:17:34.089Z,7.93
2023-12-31T20:20:37.331Z,7.96
2023-12-31T20:23:43.200Z,7.91
2023-12-31T20:26:45.839Z,7.92
2023-12-31T20:29:50.043Z,7.87
2023-12-31T20:32:53.952Z,7.79
2023-12-31T20:35:56.849Z,7.69
2023-12-31T20:38:59.492Z,7.59
2023-12-31T20:42:02.256Z,7.59
2023-12-31T20:45:05.364Z,7.51
2023-12-31T20:48:08.654Z,7.51
2023-12-31T20:51:11.491Z,7.46
2023-12-31T20:54:15.140Z,7.44
2023-12-31T20:57:17.916Z,7.49
2023-12-31T21:00:21.085Z,7.75
2023-12-31T21:03:25.487Z,7.81
2023-12-31T21:06:28.323Z,7.75
2023-12-31T21:09:31.340Z,7.80
2023-12-31T21:12:34.447Z,7.80
2023-12-31T21:15:37.993Z,7.73
2023-12-31T21:18:40.742Z,7.61
2023-12-31T21:21:43.534Z,7.66
2023-12-31T21:24:46.787Z,7.62
2023-12-31T21:27:49.325Z,7.56
2023-12-31T21:30:52.090Z,7.57
2023-12-31T21:33:55.893Z,7.57
2023-12-31T21:36:59.051Z,7.49
2023-12-31T21:40:01.848Z,7.39
2023-12-31T21:43:05.397Z,7.46
2023-12-31T21:46:07.997Z,7.49
2023-12-31T21:49:10.852Z,7.59
2023-12-31T21:52:13.346Z,7.67
2023-12-31T21:55:23.653Z,7.72
2023-12-31T21:58:35.734Z,7.76
2023-12-31T22:01:38.557Z,7.68
2023-12-31T22:04:41.428Z,7.67
2023-12-31T22:07:44.192Z,7.81
2023-12-31T22:10:46.896Z,7.78
2023-12-31T22:14:02.695Z,7.79
2023-12-31T22:17:06.812Z,7.73
2023-12-31T22:20:21.894Z,7.74
2023-12-31T22:23:24.841Z,7.84
2023-12-31T22:26:27.577Z,7.76
2023-12-31T22:29:30.534Z,7.54
2023-12-31T22:32:33.956Z,7.44
2023-12-31T22:35:36.934Z,7.31
2023-12-31T22:38:39.596Z,7.15
2023-12-31T22:41:42.347Z,7.13
2023-12-31T22:44:44.865Z,7.04
2023-12-31T22:47:47.834Z,6.95
2023-12-31T22:50:50.493Z,6.92
2023-12-31T22:53:53.523Z,6.86
2023-12-31T22:56:56.237Z,7.03
2023-12-31T22:59:59.062Z,6.97
2023-12-31T23:03:03.166Z,6.97
2023-12-31T23:06:08.842Z,6.99
2023-12-31T23:09:11.399Z,6.89
2023-12-31T23:12:14.157Z,6.76
2023-12-31T23:15:17.201Z,6.70
2023-12-31T23:18:20.177Z,6.61
2023-12-31T23:21:22.824Z,6.58
2023-12-31T23:24:25.854Z,6.57
2023-12-31T23:27:29.087Z,6.46
2023-12-31T23:30:32.332Z,6.44
2023-12-31T23:33:34.887Z,6.35
2023-12-31T23:36:44.039Z,6.22
2023-12-31T23:39:52.541Z,6.09
2023-12-31T23:42:55.266Z,6.09
2023-12-31T23:45:57.695Z,6.07
2023-12-31T23:49:00.439Z,6.07
2023-12-31T23:52:03.069Z,5.96
2023-12-31T23:55:06.486Z,5.87
2023-12-31T23:58:14.547Z,5.77
